Texas General Land Office
 Texas General Land Office
 George P. Bush, Commissioner

 Oil Spill Prevention
 & Response

Texas Automated Buoy System
Real Time Ocean Observations
Supporting Oil Spill Prevention and
Response since 1995
Geochemical and Environmental Research Group

TABS Buoy F -- Texas Automated Buoy System

TABS Buoy F Conditions at 06/24/2018 18:00 UTC (06/24/2018 13:00 CDT)
28° 50.5500'N   94° 14.4960'W
AA3900 DCS - sensor depth 2m
Water Depth: 79 feet (24 meters)
Speed: 4.81 cm/s (0.09 kts) Direction: 324 °T (NW) Water Temp: 28°C (83 °F)
System Voltage: 12.8 V Signal Strength: -1.8 dB Ping Count: 127
  


IMPORTANT: Notice to Mariners


Today's Velocity Data (download)

   Date   |  Time  |   East |   North|   Speed|  Dir | WaterT |
          |  (UTC) |  (cm/s)|  (cm/s)|  (cm/s)| (°T) |  (°C)  |
==========+========+========+========+========+======+========+
06/24/2018 03:00:00    -0.10    28.07    28.07  359.8   28.7
06/24/2018 03:30:00    -0.60    29.28    29.29  358.8   28.7
06/24/2018 04:00:00    -2.58    32.95    33.05  355.5   28.6
06/24/2018 04:30:00     0.59    35.72    35.72    0.9   28.6
06/24/2018 05:00:00     1.79    36.30    36.34    2.8   28.6
06/24/2018 05:30:00     1.51    37.89    37.92    2.3   28.6
06/24/2018 06:00:00     3.80    35.58    35.78    6.1   28.5
06/24/2018 06:30:00     5.61    28.70    29.24   11.1   28.5
06/24/2018 07:00:00     7.05    26.40    27.33   15.0   28.5
06/24/2018 07:30:00     7.86    27.99    29.07   15.7   28.5
06/24/2018 08:00:00     8.75    26.21    27.63   18.5   28.5
06/24/2018 08:30:00    11.46    26.92    29.26   23.1   28.5
06/24/2018 09:00:00    12.39    25.75    28.58   25.7   28.5
06/24/2018 09:30:00    11.91    20.39    23.61   30.3   28.5
06/24/2018 10:00:00    11.97    17.47    21.18   34.4   28.5
06/24/2018 10:30:00    10.04    13.87    17.12   35.9   28.5
06/24/2018 11:00:00    10.90    12.69    16.73   40.7   28.5
06/24/2018 11:30:00    13.10    12.09    17.83   47.3   28.5
06/24/2018 12:00:00    14.47    15.17    20.96   43.6   28.5
06/24/2018 12:30:00    15.88    15.08    21.90   46.5   28.4
06/24/2018 13:00:00    12.57    14.80    19.42   40.3   28.4
06/24/2018 13:30:00    13.46    16.07    20.96   39.9   28.4
06/24/2018 14:00:00    14.87    16.89    22.50   41.4   28.4
06/24/2018 14:30:00    10.43    12.44    16.23   40.0   28.4
06/24/2018 15:00:00     8.34    14.26    16.52   30.3   28.4
06/24/2018 15:30:00     8.32    11.28    14.02   36.4   28.4
06/24/2018 16:00:00     5.21    14.95    15.83   19.2   28.5
06/24/2018 16:30:00     7.61    10.20    12.73   36.7   28.5
06/24/2018 17:00:00     3.06    11.03    11.45   15.5   28.5
06/24/2018 17:30:00     1.57     7.41     7.57   12.0   28.5
06/24/2018 18:00:00    -2.83     3.89     4.81  324.0   28.5



       
 

Today's Temperature - Salinity Data     (Download)


   Date   |  Time  |   Temp |   Cond |Salinity| Density|SoundVel|
          |  (UTC) |   (°C) | (ms/cm)|        | kg/m^3 |  (m/s) |
==========+========+========+========+========+========+========+
06/24/2018 03:00:00    28.69     5.22    31.70     0.00     0.00
06/24/2018 03:30:00    28.66     5.21    31.71     0.00     0.00
06/24/2018 04:00:00    28.62     5.21    31.71     0.00     0.00
06/24/2018 04:30:00    28.58     5.21    31.73     0.00     0.00
06/24/2018 05:00:00    28.55     5.21    31.77     0.00     0.00
06/24/2018 05:30:00    28.52     5.22    31.81     0.00     0.00
06/24/2018 06:00:00    28.50     5.22    31.86     0.00     0.00
06/24/2018 06:30:00    28.48     5.23    31.95     0.00     0.00
06/24/2018 07:00:00    28.48     5.24    31.99     0.00     0.00
06/24/2018 07:30:00    28.48     5.24    32.00     0.00     0.00
06/24/2018 08:00:00    28.47     5.24    32.01     0.00     0.00
06/24/2018 08:30:00    28.46     5.25    32.08     0.00     0.00
06/24/2018 09:00:00    28.46     5.26    32.15     0.00     0.00
06/24/2018 09:30:00    28.46     5.27    32.21     0.00     0.00
06/24/2018 10:00:00    28.46     5.28    32.28     0.00     0.00
06/24/2018 10:30:00    28.47     5.29    32.38     0.00     0.00
06/24/2018 11:00:00    28.45     5.30    32.42     0.00     0.00
06/24/2018 11:30:00    28.45     5.31    32.51     0.00     0.00
06/24/2018 12:00:00    28.44     5.31    32.53     0.00     0.00
06/24/2018 12:30:00    28.44     5.32    32.57     0.00     0.00
06/24/2018 13:00:00    28.43     5.32    32.62     0.00     0.00
06/24/2018 13:30:00    28.43     5.33    32.64     0.00     0.00
06/24/2018 14:00:00    28.42     5.33    32.65     0.00     0.00
06/24/2018 14:30:00    28.43     5.34    32.74     0.00     0.00
06/24/2018 15:00:00    28.43     5.34    32.74     0.00     0.00
06/24/2018 15:30:00    28.42     5.34    32.76     0.00     0.00
06/24/2018 16:00:00    28.46     5.35    32.80     0.00     0.00
06/24/2018 16:30:00    28.45     5.35    32.81     0.00     0.00
06/24/2018 17:00:00    28.47     5.36    32.83     0.00     0.00
06/24/2018 17:30:00    28.47     5.36    32.86     0.00     0.00
06/24/2018 18:00:00    28.50     5.37    32.88     0.00     0.00